»·PEaware :: N904CP KSBP-KSFO

N904CP :: KSBP-KSFO

FLIGHT INFORMATION

Flight Status: Arrived
Operator: Privately registered:
United States
More flights under this callsign
Pilot: Joseph G. (11198)
Aircraft: CESSNA 172 SKYHAWK
(C172)
More flights by this aircraft type
Origin: KSBP San Luis Co Regl
United States
Destination: KSFO San Francisco Intl
United States
More flights between these airports :: More routes between these airports
Route: +SNS OSI
File this flight plan on PilotEdge
Remarks:
Altitude:
(Current/Filed)
12,000ft
Speed:
(Current/Filed)
185kts
Departed: 06-Oct-18 01:52 PM
Arrived: 06-Oct-18 03:03 PM
Distance/Time
Traveled:
165nm/1:11
Distance/Time
To Go:
Arrived

Flight Plot

Page will automatically refresh every two minutes.

Flight plan parsing failed; only flown route is shown


Map Options




Map Legend


Flown Route
Filed Route
Departure Airport
Arrival Airport
Navaid (VOR, NDB)
Fix

Horizontal Profiles

Position Reports

Time Latitude Longitude Heading Altitude Ground
Speed
06-Oct-18 13:25 35.234519 -120.632861 304 215ft 0kts
06-Oct-18 13:26 35.234519 -120.632861 304 215ft 0kts
06-Oct-18 13:27 35.234519 -120.632861 304 215ft 0kts
06-Oct-18 13:28 35.234519 -120.632861 304 215ft 0kts
06-Oct-18 13:29 35.234519 -120.632861 304 215ft 0kts
06-Oct-18 13:30 35.234519 -120.632861 304 215ft 0kts
06-Oct-18 13:31 35.234519 -120.632861 304 215ft 0kts
06-Oct-18 13:32 35.234519 -120.632861 304 215ft 0kts
06-Oct-18 13:33 35.234519 -120.632861 304 215ft 0kts
06-Oct-18 13:34 35.234519 -120.632861 304 215ft 0kts
06-Oct-18 13:35 35.234519 -120.632861 304 215ft 0kts
06-Oct-18 13:36 35.234519 -120.632861 304 215ft 0kts
06-Oct-18 13:37 35.234519 -120.632861 304 215ft 0kts
06-Oct-18 13:38 35.234519 -120.632861 304 215ft 0kts
06-Oct-18 13:39 35.234519 -120.632861 304 215ft 0kts
06-Oct-18 13:40 35.234519 -120.632861 304 215ft 0kts
06-Oct-18 13:41 35.234519 -120.632861 304 215ft 0kts
06-Oct-18 13:42 35.234519 -120.632861 304 215ft 0kts
06-Oct-18 13:43 35.234519 -120.632861 304 215ft 0kts
06-Oct-18 13:44 35.234519 -120.632861 304 215ft 0kts
06-Oct-18 13:45 35.234519 -120.632861 304 215ft 0kts
06-Oct-18 13:46 35.234519 -120.632861 304 215ft 0kts
06-Oct-18 13:47 35.234519 -120.632861 304 215ft 0kts
06-Oct-18 13:48 35.234519 -120.632861 304 215ft 0kts
06-Oct-18 13:49 35.234519 -120.632861 304 215ft 0kts
06-Oct-18 13:50 35.233094 -120.632315 128 214ft 7kts
06-Oct-18 13:51 35.233320 -120.632180 280 214ft 0kts
06-Oct-18 13:52 35.233384 -120.632203 121 214ft 5kts
06-Oct-18 13:53 35.232843 -120.633116 302 212ft 2kts
06-Oct-18 13:54 35.236310 -120.639406 304 309ft 88kts
06-Oct-18 13:55 35.248008 -120.664822 297 1724ft 96kts
06-Oct-18 13:56 35.259818 -120.696854 300 2689ft 120kts
06-Oct-18 13:57 35.279745 -120.731201 306 3559ft 126kts
06-Oct-18 13:58 35.300616 -120.766407 306 4570ft 128kts
06-Oct-18 13:59 35.321193 -120.801325 306 5575ft 126kts
06-Oct-18 14:00 35.348421 -120.825783 332 6576ft 124kts
06-Oct-18 14:01 35.379278 -120.843389 331 7579ft 121kts
06-Oct-18 14:02 35.409301 -120.860815 331 8580ft 119kts
06-Oct-18 14:03 35.438602 -120.877901 331 9581ft 116kts
06-Oct-18 14:04 35.467131 -120.894566 331 10582ft 112kts
06-Oct-18 14:05 35.494717 -120.910880 330 11579ft 109kts
06-Oct-18 14:06 35.524402 -120.928653 331 11938ft 135kts
06-Oct-18 14:07 35.559590 -120.949237 332 11936ft 143kts
06-Oct-18 14:08 35.595653 -120.970342 331 11899ft 146kts
06-Oct-18 14:09 35.634175 -120.992984 332 11889ft 158kts
06-Oct-18 14:10 35.673952 -121.016335 332 11889ft 158kts
06-Oct-18 14:11 35.713463 -121.039576 332 11888ft 157kts
06-Oct-18 14:12 35.752786 -121.062739 332 11888ft 156kts
06-Oct-18 14:13 35.791796 -121.085743 333 11887ft 155kts
06-Oct-18 14:14 35.830667 -121.108691 333 11887ft 154kts
06-Oct-18 14:15 35.869235 -121.131484 333 11886ft 153kts
06-Oct-18 14:16 35.907665 -121.154222 333 11886ft 152kts
06-Oct-18 14:17 35.945684 -121.176761 334 11885ft 152kts
06-Oct-18 14:18 35.983691 -121.199277 334 11885ft 151kts
06-Oct-18 14:19 36.021345 -121.221613 334 11895ft 150kts
06-Oct-18 14:20 36.059057 -121.244020 334 11913ft 150kts
06-Oct-18 14:21 36.096665 -121.266390 334 11937ft 149kts
06-Oct-18 14:22 36.132335 -121.287631 334 11993ft 150kts
06-Oct-18 14:23 36.168188 -121.308987 334 11900ft 156kts
06-Oct-18 14:24 36.208394 -121.332918 333 11374ft 162kts
06-Oct-18 14:25 36.248458 -121.356865 333 10879ft 160kts
06-Oct-18 14:26 36.288520 -121.380767 333 10382ft 161kts
06-Oct-18 14:27 36.328158 -121.404666 332 9891ft 162kts
06-Oct-18 14:28 36.368004 -121.428577 332 9398ft 164kts
06-Oct-18 14:29 36.408295 -121.452778 331 8901ft 165kts
06-Oct-18 14:30 36.448899 -121.477151 331 8155ft 156kts
06-Oct-18 14:31 36.485673 -121.499346 330 8005ft 142kts
06-Oct-18 14:32 36.520508 -121.520376 331 8007ft 154kts
06-Oct-18 14:33 36.552088 -121.539416 331 8006ft 154kts
06-Oct-18 14:34 36.589936 -121.562271 331 8003ft 154kts
06-Oct-18 14:35 36.627212 -121.584806 331 7999ft 154kts
06-Oct-18 14:36 36.664848 -121.607993 326 7987ft 153kts
06-Oct-18 14:37 36.702244 -121.637581 325 7361ft 166kts
06-Oct-18 14:38 36.740218 -121.667706 324 6770ft 164kts
06-Oct-18 14:39 36.777979 -121.697724 324 6183ft 165kts
06-Oct-18 14:40 36.815150 -121.727329 325 5995ft 157kts
06-Oct-18 14:41 36.851689 -121.756435 327 5989ft 158kts
06-Oct-18 14:42 36.888841 -121.786045 328 5985ft 160kts
06-Oct-18 14:43 36.926454 -121.816058 328 5982ft 161kts
06-Oct-18 14:44 36.958135 -121.841369 329 5980ft 162kts
06-Oct-18 14:45 37.002517 -121.876872 329 5979ft 163kts
06-Oct-18 14:46 37.034319 -121.902346 329 5979ft 163kts
06-Oct-18 14:47 37.078988 -121.938136 329 5979ft 163kts
06-Oct-18 14:48 37.109638 -121.962670 329 5984ft 163kts
06-Oct-18 14:49 37.147020 -121.992681 328 5986ft 161kts
06-Oct-18 14:50 37.184281 -122.020142 349 5987ft 159kts
06-Oct-18 14:51 37.227289 -122.025361 353 5990ft 158kts
06-Oct-18 14:52 37.269980 -122.029499 353 5991ft 157kts
06-Oct-18 14:53 37.313087 -122.033214 353 5991ft 157kts
06-Oct-18 14:54 37.355759 -122.036821 353 5991ft 157kts
06-Oct-18 14:55 37.398612 -122.040416 353 5893ft 162kts
06-Oct-18 14:56 37.439403 -122.048469 326 5232ft 153kts
06-Oct-18 14:57 37.473528 -122.079296 324 4537ft 153kts
06-Oct-18 14:58 37.508205 -122.110479 315 3945ft 150kts
06-Oct-18 14:59 37.529956 -122.158169 298 3464ft 152kts
06-Oct-18 15:00 37.549002 -122.203341 296 2707ft 144kts
06-Oct-18 15:01 37.567729 -122.248167 296 1933ft 145kts
06-Oct-18 15:02 37.584739 -122.288487 294 1224ft 118kts
06-Oct-18 15:03 37.598830 -122.321819 294 681ft 89kts
06-Oct-18 15:04 37.609916 -122.348374 293 203ft 85kts
06-Oct-18 15:05 37.617147 -122.364192 2 8ft 33kts
06-Oct-18 15:06 37.617676 -122.364392 305 8ft 4kts
06-Oct-18 15:07 37.618438 -122.365099 25 8ft 0kts
06-Oct-18 15:08 37.618443 -122.365089 55 8ft 0kts

Navigation Log

Ident Type
Flight plan parsing failed, navigation log unavailable